Have a Safe July 4th! 

Flight Track Log - Related Links

Times and Time Zones

All times are in EST time to prevent confusion due to time zone crossing. See the DAL5846 flight status page for this flight to view local times or setup timezone preferences in your user account.

Time Position Orientation Groundspeed Altitude Reporting Facility
EST Latitude Longitude Course Direction KTS MPH feet Rate Location/Type
Thu 06:32:53 PM 33.9469 -118.4481 296° West 153 176 1,500  Level Los Angeles Center
Thu 06:33:55 PM 33.9397 -118.5269 264° West 231 266 3,700 2,806 Climbing Los Angeles Center
Thu 06:34:57 PM 33.9331 -118.6219 265° West 263 303 7,300 3,242 Climbing Los Angeles Center
Thu 06:35:59 PM 33.9225 -118.7169 262° West 284 327 10,400 2,274 Climbing Los Angeles Center
Thu 06:37:01 PM 33.9106 -118.8214 262° West 316 364 12,000 2,032 Climbing Los Angeles Center
Thu 06:38:00 PM 34.0772 -118.9180 296° West  Level FlightAware Approximate
Thu 06:38:03 PM 33.9081 -118.9317 268° West 331 381 14,600  Level Los Angeles Center
Thu 06:39:06 PM 33.9664 -119.0200 309° West 335 386 16,900 2,016 Climbing Los Angeles Center
Thu 06:40:08 PM 34.0297 -119.1078 311° West 347 399 18,800 1,935 Climbing Los Angeles Center
Thu 06:41:10 PM 34.1083 -119.2156 311° West 355 409 20,900 1,742 Climbing Los Angeles Center
Thu 06:42:12 PM 34.1756 -119.3075 311° West 367 422 22,400 1,452 Climbing Los Angeles Center
Thu 06:43:14 PM 34.2436 -119.4022 311° West 374 430 23,900 1,355 Climbing Los Angeles Center
Thu 06:44:16 PM 34.3131 -119.4967 312° West 375 432 25,200 1,210 Climbing Los Angeles Center
Thu 06:45:18 PM 34.3833 -119.5958 311° West 384 442 26,400 1,258 Climbing Los Angeles Center
Thu 06:46:20 PM 34.4547 -119.6958 311° West 391 450 27,800 1,392 Climbing Los Angeles Center
Thu 06:47:23 PM 34.5450 -119.8131 313° West 397 457 29,300 1,392 Climbing Los Angeles Center
Thu 06:48:25 PM 34.6256 -119.8997 318° Northwest 403 464 30,700 1,306 Climbing Los Angeles Center
Thu 06:49:27 PM 34.7089 -119.9897 318° Northwest 401 461 32,000 629 Climbing Los Angeles Center
Thu 06:50:29 PM 34.7900 -120.0789 318° Northwest 395 455 32,000  Level Los Angeles Center
Thu 06:51:31 PM 34.8808 -120.1772 318° Northwest 394 453 32,000 581 Level Los Angeles Center
Thu 06:52:33 PM 34.9619 -120.2664 318° Northwest 397 457 33,200 968 Climbing Los Angeles Center
Thu 06:53:35 PM 35.0422 -120.3556 318° Northwest 394 453 34,000 384 Climbing Los Angeles Center
Thu 06:54:38 PM 35.1400 -120.4639 318° Northwest 397 457 34,000  Level Los Angeles Center
Thu 06:55:40 PM 35.2211 -120.5547 318° Northwest 397 457 34,000  Level Los Angeles Center
Thu 06:56:42 PM 35.3031 -120.6453 318° Northwest 398 458 34,000  Level Los Angeles Center
Thu 06:57:44 PM 35.3839 -120.7364 317° Northwest 397 457 34,000  Level Los Angeles Center
Thu 06:58:46 PM 35.4656 -120.8267 318° Northwest 397 457 34,000  Level Los Angeles Center
Thu 06:59:48 PM 35.5467 -120.9164 318° Northwest 394 453 34,000  Level Los Angeles Center
Thu 07:00:50 PM 35.6428 -121.0267 317° Northwest 393 452 34,000 -48 Level Los Angeles Center
Thu 07:01:52 PM 35.7214 -121.1186 316° Northwest 391 450 33,900 -528 Descending Los Angeles Center
Thu 07:02:55 PM 35.8022 -121.2103 317° Northwest 393 452 32,900 -1,176 Descending Los Angeles Center
Thu 07:04:20 PM 35.9156 -121.3378 318° Northwest 394 453 31,000 -1,479 Descending Oakland Center
Thu 07:05:21 PM 35.9967 -121.4308 317° Northwest 397 457 29,300 -1,659 Descending Oakland Center
Thu 07:06:23 PM 36.0764 -121.5219 317° Northwest 395 455 27,600 -1,610 Descending Oakland Center
Thu 07:07:24 PM 36.1642 -121.6239 317° Northwest 368 423 26,000 -780 Descending Oakland Center
Thu 07:08:26 PM 36.2422 -121.7006 322° Northwest 362 417 26,000  Level Oakland Center
Thu 07:09:28 PM 36.3258 -121.7700 326° Northwest 361 415 26,000  Level Oakland Center
Thu 07:10:29 PM 36.4072 -121.8372 326° Northwest 358 412 26,000 -1,122 Level Oakland Center
Thu 07:11:31 PM 36.4925 -121.9008 329° Northwest 358 412 23,700 -2,195 Descending Oakland Center
Thu 07:12:32 PM 36.5917 -121.9208 351° North 358 412 21,500 -2,387 Descending Oakland Center
Thu 07:13:04 PM 36.6500 -121.9333 350° North 347 399 20,000 -2,348 Descending Northern Cal TRACON
Thu 07:14:04 PM 36.7500 -121.9667 345° North 337 388 17,900 -2,050 Descending Northern Cal TRACON
Thu 07:15:04 PM 36.8333 -121.9833 351° North 329 379 15,900 -2,022 Descending Northern Cal TRACON
Thu 07:15:36 PM 36.8839 -122.0003 345° North 329 379 14,800 -1,979 Descending Oakland Center
Thu 07:16:38 PM 36.9706 -122.0247 347° North 321 369 12,800 -1,659 Descending Oakland Center
Thu 07:17:39 PM 37.0550 -122.0467 348° North 311 358 11,400 -1,171 Descending Oakland Center
Thu 07:18:41 PM 37.1367 -122.0675 349° North 302 348 10,400 -732 Descending Oakland Center
Thu 07:19:42 PM 37.2122 -122.0878 348° North 280 322 9,900 -488 Descending Oakland Center
Thu 07:20:44 PM 37.2767 -122.1044 348° North 242 278 9,400 -878 Descending Oakland Center
Thu 07:21:45 PM 37.3372 -122.1208 348° North 225 259 8,100 -1,756 Descending Oakland Center
Thu 07:22:47 PM 37.3964 -122.1361 348° North 217 250 5,800 -2,000 Descending Oakland Center
Thu 07:23:48 PM 37.4647 -122.1561 347° North 213 245 4,000 -1,366 Descending Oakland Center
Thu 07:24:50 PM 37.5178 -122.1808 340° North 207 238 3,000 -976 Descending Oakland Center
Thu 07:25:51 PM 37.5544 -122.2375 309° West 211 243 2,000 -878 Descending Oakland Center
Thu 07:26:53 PM 37.5797 -122.2828 305° West 179 206 1,200 -683 Descending Oakland Center
Thu 07:27:54 PM 37.5967 -122.3236 298° West 147 169 600 -439 Descending Oakland Center
Thu 07:28:56 PM 37.6144 -122.3661 298° West 137 158 300 -290 Descending Oakland Center
Thu 07:30:00 PM 37.6167 -122.3667 322° Northwest  Level FlightAware Approximate

Login

Don't have an account? Register now (free) for customized features, flight alerts, and more!